sensor_id;sensor_type;location;lat;lon;timestamp;pressure;altitude;pressure_sealevel;temperature;humidity
28701;BME280;15877;52.344;16.790;2023-03-23T00:02:29;99885.99;;;13.92;66.96
28701;BME280;15877;52.344;16.790;2023-03-23T00:05:02;99885.75;;;13.89;66.94
28701;BME280;15877;52.344;16.790;2023-03-23T00:07:37;99883.77;;;13.88;66.69
28701;BME280;15877;52.344;16.790;2023-03-23T00:10:15;99881.45;;;13.86;66.61
28701;BME280;15877;52.344;16.790;2023-03-23T00:12:47;99880.17;;;13.83;66.69
28701;BME280;15877;52.344;16.790;2023-03-23T00:15:20;99873.15;;;13.82;66.62
28701;BME280;15877;52.344;16.790;2023-03-23T00:17:55;99871.64;;;13.81;66.56
28701;BME280;15877;52.344;16.790;2023-03-23T00:20:32;99873.15;;;13.78;66.77
28701;BME280;15877;52.344;16.790;2023-03-23T00:23:10;99867.96;;;13.73;67.11
28701;BME280;15877;52.344;16.790;2023-03-23T00:25:42;99874.18;;;13.70;67.05
28701;BME280;15877;52.344;16.790;2023-03-23T00:28:13;99870.67;;;13.68;66.91
28701;BME280;15877;52.344;16.790;2023-03-23T00:30:44;99869.23;;;13.65;66.88
28701;BME280;15877;52.344;16.790;2023-03-23T00:33:16;99870.43;;;13.62;66.98
28701;BME280;15877;52.344;16.790;2023-03-23T00:35:48;99869.15;;;13.59;66.98
28701;BME280;15877;52.344;16.790;2023-03-23T00:38:23;99859.34;;;13.52;66.92
28701;BME280;15877;52.344;16.790;2023-03-23T00:40:55;99842.35;;;13.40;66.85
28701;BME280;15877;52.344;16.790;2023-03-23T00:43:27;99862.45;;;13.52;67.12
28701;BME280;15877;52.344;16.790;2023-03-23T00:45:59;99863.88;;;13.50;67.04
28701;BME280;15877;52.344;16.790;2023-03-23T00:48:31;99858.77;;;13.48;67.12
28701;BME280;15877;52.344;16.790;2023-03-23T00:51:03;99864.60;;;13.46;67.04
28701;BME280;15877;52.344;16.790;2023-03-23T00:53:36;99858.61;;;13.43;67.19
28701;BME280;15877;52.344;16.790;2023-03-23T00:56:09;99848.42;;;13.39;67.52
28701;BME280;15877;52.344;16.790;2023-03-23T00:58:41;99843.88;;;13.38;67.39
28701;BME280;15877;52.344;16.790;2023-03-23T01:01:13;99831.09;;;13.29;67.39
28701;BME280;15877;52.344;16.790;2023-03-23T01:03:45;99839.88;;;13.31;67.62
28701;BME280;15877;52.344;16.790;2023-03-23T01:06:17;99837.63;;;13.27;67.43
28701;BME280;15877;52.344;16.790;2023-03-23T01:08:48;99835.64;;;13.27;67.69
28701;BME280;15877;52.344;16.790;2023-03-23T01:11:20;99828.14;;;13.26;67.48
28701;BME280;15877;52.344;16.790;2023-03-23T01:13:51;99828.86;;;13.25;67.46
28701;BME280;15877;52.344;16.790;2023-03-23T01:16:24;99829.34;;;13.23;67.73
28701;BME280;15877;52.344;16.790;2023-03-23T01:18:56;99828.85;;;13.23;67.63
28701;BME280;15877;52.344;16.790;2023-03-23T01:21:27;99831.08;;;13.22;67.64
28701;BME280;15877;52.344;16.790;2023-03-23T01:24:00;99822.30;;;13.20;67.28
28701;BME280;15877;52.344;16.790;2023-03-23T01:26:31;99821.20;;;13.18;67.40
28701;BME280;15877;52.344;16.790;2023-03-23T01:29:03;99823.19;;;13.16;67.58
28701;BME280;15877;52.344;16.790;2023-03-23T01:31:35;99819.05;;;13.14;67.64
28701;BME280;15877;52.344;16.790;2023-03-23T01:34:09;99814.97;;;13.10;67.67
28701;BME280;15877;52.344;16.790;2023-03-23T01:36:42;99793.04;;;12.96;67.73
28701;BME280;15877;52.344;16.790;2023-03-23T01:39:14;99802.20;;;13.04;67.70
28701;BME280;15877;52.344;16.790;2023-03-23T01:41:46;99798.92;;;13.02;67.87
28701;BME280;15877;52.344;16.790;2023-03-23T01:47:25;99797.71;;;12.99;67.88
28701;BME280;15877;52.344;16.790;2023-03-23T01:49:58;99794.52;;;13.00;67.94
28701;BME280;15877;52.344;16.790;2023-03-23T01:52:30;99792.15;;;13.01;67.92
28701;BME280;15877;52.344;16.790;2023-03-23T01:55:07;99788.72;;;13.01;67.93
28701;BME280;15877;52.344;16.790;2023-03-23T01:57:40;99787.73;;;12.99;67.72
28701;BME280;15877;52.344;16.790;2023-03-23T02:00:14;99776.27;;;12.95;67.68
28701;BME280;15877;52.344;16.790;2023-03-23T02:02:52;99779.45;;;12.93;68.00
28701;BME280;15877;52.344;16.790;2023-03-23T02:05:30;99780.33;;;12.91;68.19
28701;BME280;15877;52.344;16.790;2023-03-23T02:08:34;99773.38;;;12.85;68.44
28701;BME280;15877;52.344;16.790;2023-03-23T02:11:14;99771.31;;;12.86;68.40
28701;BME280;15877;52.344;16.790;2023-03-23T02:13:46;99769.09;;;12.87;68.48
28701;BME280;15877;52.344;16.790;2023-03-23T02:16:25;99762.64;;;12.87;68.39
28701;BME280;15877;52.344;16.790;2023-03-23T02:19:08;99761.66;;;12.82;68.56
28701;BME280;15877;52.344;16.790;2023-03-23T02:22:12;99757.53;;;12.85;68.50
28701;BME280;15877;52.344;16.790;2023-03-23T02:28:23;99746.70;;;12.84;68.42
28701;BME280;15877;52.344;16.790;2023-03-23T02:31:23;99741.60;;;12.84;68.51
28701;BME280;15877;52.344;16.790;2023-03-23T02:34:02;99738.02;;;12.84;68.43
28701;BME280;15877;52.344;16.790;2023-03-23T02:36:39;99735.86;;;12.85;68.30
28701;BME280;15877;52.344;16.790;2023-03-23T02:39:21;99728.87;;;12.85;68.27
28701;BME280;15877;52.344;16.790;2023-03-23T02:41:56;99733.80;;;12.87;68.11
28701;BME280;15877;52.344;16.790;2023-03-23T02:44:30;99724.95;;;12.83;68.18
28701;BME280;15877;52.344;16.790;2023-03-23T02:47:06;99728.55;;;12.86;68.32
28701;BME280;15877;52.344;16.790;2023-03-23T02:49:41;99724.21;;;12.70;68.86
28701;BME280;15877;52.344;16.790;2023-03-23T02:52:18;99727.48;;;12.70;69.01
28701;BME280;15877;52.344;16.790;2023-03-23T02:54:52;99729.72;;;12.72;69.11
28701;BME280;15877;52.344;16.790;2023-03-23T02:57:25;99729.96;;;12.76;68.99
28701;BME280;15877;52.344;16.790;2023-03-23T02:59:59;99741.83;;;12.79;68.91
28701;BME280;15877;52.344;16.790;2023-03-23T03:02:36;99737.92;;;12.80;68.93
28701;BME280;15877;52.344;16.790;2023-03-23T03:05:17;99737.29;;;12.84;68.90
28701;BME280;15877;52.344;16.790;2023-03-23T03:08:02;99738.56;;;12.84;69.02
28701;BME280;15877;52.344;16.790;2023-03-23T03:10:46;99729.58;;;12.87;69.31
28701;BME280;15877;52.344;16.790;2023-03-23T03:13:28;99725.20;;;12.90;68.92
28701;BME280;15877;52.344;16.790;2023-03-23T03:16:08;99720.42;;;12.96;68.96
28701;BME280;15877;52.344;16.790;2023-03-23T03:18:48;99717.16;;;12.97;68.84
28701;BME280;15877;52.344;16.790;2023-03-23T03:21:25;99713.73;;;13.00;68.86
28701;BME280;15877;52.344;16.790;2023-03-23T03:24:01;99709.29;;;12.99;68.72
28701;BME280;15877;52.344;16.790;2023-03-23T03:26:35;99711.30;;;13.00;68.73
28701;BME280;15877;52.344;16.790;2023-03-23T03:29:23;99701.64;;;12.90;68.65
28701;BME280;15877;52.344;16.790;2023-03-23T03:31:58;99715.57;;;13.00;68.52
28701;BME280;15877;52.344;16.790;2023-03-23T03:34:31;99709.85;;;12.99;68.57
28701;BME280;15877;52.344;16.790;2023-03-23T03:37:05;99709.68;;;12.98;68.48
28701;BME280;15877;52.344;16.790;2023-03-23T03:39:38;99711.83;;;12.98;68.46
28701;BME280;15877;52.344;16.790;2023-03-23T03:42:09;99714.78;;;13.00;68.26
28701;BME280;15877;52.344;16.790;2023-03-23T03:44:41;99705.69;;;13.00;68.49
28701;BME280;15877;52.344;16.790;2023-03-23T03:47:12;99708.36;;;13.04;68.27
28701;BME280;15877;52.344;16.790;2023-03-23T03:49:43;99708.84;;;13.07;68.26
28701;BME280;15877;52.344;16.790;2023-03-23T03:52:15;99707.09;;;13.04;68.54
28701;BME280;15877;52.344;16.790;2023-03-23T03:54:46;99697.36;;;12.99;68.49
28701;BME280;15877;52.344;16.790;2023-03-23T03:57:18;99707.40;;;13.09;68.43
28701;BME280;15877;52.344;16.790;2023-03-23T04:00:09;99702.14;;;13.09;68.40
28701;BME280;15877;52.344;16.790;2023-03-23T04:02:45;99703.02;;;13.14;67.97
28701;BME280;15877;52.344;16.790;2023-03-23T04:05:26;99703.58;;;13.11;68.02
28701;BME280;15877;52.344;16.790;2023-03-23T04:07:59;99693.13;;;13.05;68.10
28701;BME280;15877;52.344;16.790;2023-03-23T04:10:32;99708.61;;;13.12;68.24
28701;BME280;15877;52.344;16.790;2023-03-23T04:13:04;99706.29;;;13.11;68.33
28701;BME280;15877;52.344;16.790;2023-03-23T04:16:02;99706.84;;;13.08;68.26
28701;BME280;15877;52.344;16.790;2023-03-23T04:18:35;99710.28;;;13.14;67.97
28701;BME280;15877;52.344;16.790;2023-03-23T04:21:07;99707.80;;;13.18;67.79
28701;BME280;15877;52.344;16.790;2023-03-23T04:23:38;99705.98;;;13.23;67.41
28701;BME280;15877;52.344;16.790;2023-03-23T04:26:10;99706.84;;;13.32;67.01
28701;BME280;15877;52.344;16.790;2023-03-23T04:28:45;99705.48;;;13.33;66.91
28701;BME280;15877;52.344;16.790;2023-03-23T04:31:35;99703.65;;;13.30;66.84
28701;BME280;15877;52.344;16.790;2023-03-23T04:34:16;99699.99;;;13.25;66.53
28701;BME280;15877;52.344;16.790;2023-03-23T04:36:51;99689.54;;;13.37;66.53
28701;BME280;15877;52.344;16.790;2023-03-23T04:39:27;99691.45;;;13.34;66.77
28701;BME280;15877;52.344;16.790;2023-03-23T04:42:01;99686.51;;;13.35;66.79
28701;BME280;15877;52.344;16.790;2023-03-23T04:44:48;99669.45;;;13.32;66.45
28701;BME280;15877;52.344;16.790;2023-03-23T04:47:33;99677.50;;;13.37;66.75
28701;BME280;15877;52.344;16.790;2023-03-23T04:50:15;99674.23;;;13.40;66.62
28701;BME280;15877;52.344;16.790;2023-03-23T04:52:48;99675.10;;;13.43;66.67
28701;BME280;15877;52.344;16.790;2023-03-23T04:55:22;99673.41;;;13.50;66.31
28701;BME280;15877;52.344;16.790;2023-03-23T04:57:57;99671.41;;;13.52;66.56
28701;BME280;15877;52.344;16.790;2023-03-23T05:00:47;99672.69;;;13.55;66.36
28701;BME280;15877;52.344;16.790;2023-03-23T05:03:20;99671.16;;;13.61;65.89
28701;BME280;15877;52.344;16.790;2023-03-23T05:05:53;99668.45;;;13.60;65.51
28701;BME280;15877;52.344;16.790;2023-03-23T05:08:25;99671.78;;;13.65;65.61
28701;BME280;15877;52.344;16.790;2023-03-23T05:10:58;99668.91;;;13.62;65.73
28701;BME280;15877;52.344;16.790;2023-03-23T05:13:31;99656.10;;;13.56;65.56
28701;BME280;15877;52.344;16.790;2023-03-23T05:16:06;99665.00;;;13.66;65.30
28701;BME280;15877;52.344;16.790;2023-03-23T05:18:39;99661.90;;;13.61;65.48
28701;BME280;15877;52.344;16.790;2023-03-23T05:21:12;99649.08;;;13.59;65.38
28701;BME280;15877;52.344;16.790;2023-03-23T05:23:46;99651.91;;;13.68;65.43
28701;BME280;15877;52.344;16.790;2023-03-23T05:26:24;99645.38;;;13.67;64.87
28701;BME280;15877;52.344;16.790;2023-03-23T05:29:00;99648.95;;;13.73;64.97
28701;BME280;15877;52.344;16.790;2023-03-23T05:31:43;99646.56;;;13.72;65.04
28701;BME280;15877;52.344;16.790;2023-03-23T05:34:16;99647.20;;;13.73;64.93
28701;BME280;15877;52.344;16.790;2023-03-23T05:36:53;99649.16;;;13.82;64.62
28701;BME280;15877;52.344;16.790;2023-03-23T05:39:32;99646.92;;;13.83;64.94
28701;BME280;15877;52.344;16.790;2023-03-23T05:42:25;99644.29;;;13.87;64.82
28701;BME280;15877;52.344;16.790;2023-03-23T05:45:12;99646.30;;;13.99;64.58
28701;BME280;15877;52.344;16.790;2023-03-23T05:47:44;99647.26;;;13.98;64.92
28701;BME280;15877;52.344;16.790;2023-03-23T05:50:20;99651.58;;;13.98;65.01
28701;BME280;15877;52.344;16.790;2023-03-23T05:52:51;99660.41;;;13.99;64.67
28701;BME280;15877;52.344;16.790;2023-03-23T05:55:26;99661.48;;;14.09;64.42
28701;BME280;15877;52.344;16.790;2023-03-23T05:58:05;99662.86;;;14.06;64.14
28701;BME280;15877;52.344;16.790;2023-03-23T06:00:40;99663.20;;;14.06;64.23
28701;BME280;15877;52.344;16.790;2023-03-23T06:03:16;99648.92;;;14.03;64.15
28701;BME280;15877;52.344;16.790;2023-03-23T06:06:00;99654.97;;;14.07;63.83
28701;BME280;15877;52.344;16.790;2023-03-23T06:08:39;99658.79;;;14.09;64.14
28701;BME280;15877;52.344;16.790;2023-03-23T06:11:10;99660.20;;;14.14;64.30
28701;BME280;15877;52.344;16.790;2023-03-23T06:13:48;99643.14;;;14.10;64.42
28701;BME280;15877;52.344;16.790;2023-03-23T06:16:20;99655.09;;;14.14;64.37
28701;BME280;15877;52.344;16.790;2023-03-23T06:18:57;99638.77;;;14.10;64.82
28701;BME280;15877;52.344;16.790;2023-03-23T06:21:36;99650.54;;;14.15;64.87
28701;BME280;15877;52.344;16.790;2023-03-23T06:24:26;99645.10;;;14.15;64.78
28701;BME280;15877;52.344;16.790;2023-03-23T06:26:58;99635.88;;;14.27;64.27
28701;BME280;15877;52.344;16.790;2023-03-23T06:29:30;99633.56;;;14.29;63.99
28701;BME280;15877;52.344;16.790;2023-03-23T06:32:03;99627.60;;;14.24;63.70
28701;BME280;15877;52.344;16.790;2023-03-23T06:34:36;99636.35;;;14.29;63.88
28701;BME280;15877;52.344;16.790;2023-03-23T06:37:26;99640.52;;;14.31;63.95
28701;BME280;15877;52.344;16.790;2023-03-23T06:40:07;99641.42;;;14.35;63.62
28701;BME280;15877;52.344;16.790;2023-03-23T06:42:44;99643.55;;;14.30;63.70
28701;BME280;15877;52.344;16.790;2023-03-23T06:45:27;99648.48;;;14.31;63.55
28701;BME280;15877;52.344;16.790;2023-03-23T06:48:22;99648.31;;;14.32;63.12
28701;BME280;15877;52.344;16.790;2023-03-23T06:50:54;99647.96;;;14.38;63.35
28701;BME280;15877;52.344;16.790;2023-03-23T06:53:26;99646.67;;;14.42;62.86
28701;BME280;15877;52.344;16.790;2023-03-23T06:55:59;99644.79;;;14.48;62.89
28701;BME280;15877;52.344;16.790;2023-03-23T06:58:31;99626.11;;;14.45;62.77
28701;BME280;15877;52.344;16.790;2023-03-23T07:01:02;99633.44;;;14.63;62.75
28701;BME280;15877;52.344;16.790;2023-03-23T07:03:38;99639.98;;;14.62;62.65
28701;BME280;15877;52.344;16.790;2023-03-23T07:06:11;99634.21;;;14.76;62.36
28701;BME280;15877;52.344;16.790;2023-03-23T07:08:50;99630.79;;;14.95;62.02
28701;BME280;15877;52.344;16.790;2023-03-23T07:11:25;99629.45;;;14.91;61.60
28701;BME280;15877;52.344;16.790;2023-03-23T07:13:58;99634.33;;;14.90;61.64
28701;BME280;15877;52.344;16.790;2023-03-23T07:16:29;99629.91;;;14.95;62.29
28701;BME280;15877;52.344;16.790;2023-03-23T07:19:01;99630.77;;;14.98;61.83
28701;BME280;15877;52.344;16.790;2023-03-23T07:21:32;99639.13;;;14.90;62.11
28701;BME280;15877;52.344;16.790;2023-03-23T07:24:05;99640.71;;;15.03;61.82
28701;BME280;15877;52.344;16.790;2023-03-23T07:26:46;99640.45;;;15.21;62.34
28701;BME280;15877;52.344;16.790;2023-03-23T07:29:18;99641.91;;;15.19;62.26
28701;BME280;15877;52.344;16.790;2023-03-23T07:31:54;99645.77;;;15.17;62.31
28701;BME280;15877;52.344;16.790;2023-03-23T07:34:26;99648.98;;;15.23;62.31
28701;BME280;15877;52.344;16.790;2023-03-23T07:37:20;99652.83;;;15.31;62.11
28701;BME280;15877;52.344;16.790;2023-03-23T07:39:52;99639.67;;;15.28;61.50
28701;BME280;15877;52.344;16.790;2023-03-23T07:42:24;99625.33;;;15.15;61.04
28701;BME280;15877;52.344;16.790;2023-03-23T07:45:02;99640.06;;;15.21;60.88
28701;BME280;15877;52.344;16.790;2023-03-23T07:47:33;99644.45;;;15.23;61.28
28701;BME280;15877;52.344;16.790;2023-03-23T07:50:06;99645.48;;;15.23;61.31
28701;BME280;15877;52.344;16.790;2023-03-23T07:52:41;99644.15;;;15.27;61.66
28701;BME280;15877;52.344;16.790;2023-03-23T07:55:13;99636.21;;;15.30;61.71
28701;BME280;15877;52.344;16.790;2023-03-23T07:58:07;99643.34;;;15.28;61.53
28701;BME280;15877;52.344;16.790;2023-03-23T08:00:38;99650.58;;;15.24;61.27
28701;BME280;15877;52.344;16.790;2023-03-23T08:03:11;99657.91;;;15.26;61.38
28701;BME280;15877;52.344;16.790;2023-03-23T08:06:04;99657.42;;;15.35;61.62
28701;BME280;15877;52.344;16.790;2023-03-23T08:08:55;99664.64;;;15.45;61.30
28701;BME280;15877;52.344;16.790;2023-03-23T08:11:46;99662.55;;;15.53;60.96
28701;BME280;15877;52.344;16.790;2023-03-23T08:14:37;99643.67;;;15.37;61.43
28701;BME280;15877;52.344;16.790;2023-03-23T08:17:41;99649.02;;;15.48;61.95
28701;BME280;15877;52.344;16.790;2023-03-23T08:20:39;99663.80;;;15.57;61.26
28701;BME280;15877;52.344;16.790;2023-03-23T08:23:19;99658.98;;;15.59;61.08
28701;BME280;15877;52.344;16.790;2023-03-23T08:26:07;99653.71;;;15.58;60.90
28701;BME280;15877;52.344;16.790;2023-03-23T08:28:57;99648.02;;;15.60;60.43
28701;BME280;15877;52.344;16.790;2023-03-23T08:31:47;99648.33;;;15.60;61.03
28701;BME280;15877;52.344;16.790;2023-03-23T08:34:54;99640.79;;;15.68;60.37
28701;BME280;15877;52.344;16.790;2023-03-23T08:37:45;99644.08;;;15.54;60.38
28701;BME280;15877;52.344;16.790;2023-03-23T08:40:39;99660.83;;;15.65;59.84
28701;BME280;15877;52.344;16.790;2023-03-23T08:43:39;99656.74;;;15.72;59.44
28701;BME280;15877;52.344;16.790;2023-03-23T08:46:29;99658.55;;;15.75;60.10
28701;BME280;15877;52.344;16.790;2023-03-23T08:49:15;99658.16;;;15.81;59.92
28701;BME280;15877;52.344;16.790;2023-03-23T08:52:16;99655.16;;;15.86;59.60
28701;BME280;15877;52.344;16.790;2023-03-23T08:54:58;99658.48;;;15.89;59.87
28701;BME280;15877;52.344;16.790;2023-03-23T08:57:49;99648.94;;;15.90;59.71
28701;BME280;15877;52.344;16.790;2023-03-23T09:00:41;99649.36;;;15.89;59.93
28701;BME280;15877;52.344;16.790;2023-03-23T09:03:19;99653.05;;;15.94;59.72
28701;BME280;15877;52.344;16.790;2023-03-23T09:06:10;99662.63;;;16.02;59.73
28701;BME280;15877;52.344;16.790;2023-03-23T09:08:48;99663.05;;;16.02;59.83
28701;BME280;15877;52.344;16.790;2023-03-23T09:11:20;99657.30;;;16.00;61.22
28701;BME280;15877;52.344;16.790;2023-03-23T09:13:52;99662.83;;;16.06;60.21
28701;BME280;15877;52.344;16.790;2023-03-23T09:16:23;99672.05;;;16.18;60.16
28701;BME280;15877;52.344;16.790;2023-03-23T09:18:55;99675.42;;;16.42;59.24
28701;BME280;15877;52.344;16.790;2023-03-23T09:21:28;99681.56;;;16.67;58.36
28701;BME280;15877;52.344;16.790;2023-03-23T09:24:00;99667.29;;;16.63;57.93
28701;BME280;15877;52.344;16.790;2023-03-23T09:26:32;99678.14;;;16.66;57.65
28701;BME280;15877;52.344;16.790;2023-03-23T09:29:04;99676.48;;;16.70;57.14
28701;BME280;15877;52.344;16.790;2023-03-23T09:31:35;99676.98;;;16.85;56.86
28701;BME280;15877;52.344;16.790;2023-03-23T09:34:09;99654.42;;;16.65;56.77
28701;BME280;15877;52.344;16.790;2023-03-23T09:36:41;99678.93;;;16.72;56.14
28701;BME280;15877;52.344;16.790;2023-03-23T09:39:13;99678.22;;;16.75;55.93
28701;BME280;15877;52.344;16.790;2023-03-23T09:42:02;99681.55;;;16.73;56.33
28701;BME280;15877;52.344;16.790;2023-03-23T09:44:45;99684.48;;;16.81;55.91
28701;BME280;15877;52.344;16.790;2023-03-23T09:47:28;99694.02;;;16.76;55.71
28701;BME280;15877;52.344;16.790;2023-03-23T09:50:08;99699.05;;;16.72;56.04
28701;BME280;15877;52.344;16.790;2023-03-23T09:52:45;99709.86;;;16.83;55.42
28701;BME280;15877;52.344;16.790;2023-03-23T09:55:19;99717.58;;;16.64;55.83
28701;BME280;15877;52.344;16.790;2023-03-23T09:57:54;99721.39;;;16.67;55.45
28701;BME280;15877;52.344;16.790;2023-03-23T10:00:31;99723.33;;;16.77;54.84
28701;BME280;15877;52.344;16.790;2023-03-23T10:03:06;99725.45;;;16.69;55.18
28701;BME280;15877;52.344;16.790;2023-03-23T10:05:42;99727.59;;;16.71;55.35
28701;BME280;15877;52.344;16.790;2023-03-23T10:08:18;99739.38;;;16.71;55.81
28701;BME280;15877;52.344;16.790;2023-03-23T10:11:00;99741.36;;;16.61;56.29
28701;BME280;15877;52.344;16.790;2023-03-23T10:13:59;99749.05;;;16.54;56.90
28701;BME280;15877;52.344;16.790;2023-03-23T10:16:36;99748.27;;;16.58;56.85
28701;BME280;15877;52.344;16.790;2023-03-23T10:19:15;99750.84;;;16.53;57.67
28701;BME280;15877;52.344;16.790;2023-03-23T10:21:52;99748.01;;;16.49;58.02
28701;BME280;15877;52.344;16.790;2023-03-23T10:24:29;99750.76;;;16.38;58.36
28701;BME280;15877;52.344;16.790;2023-03-23T10:27:11;99751.00;;;16.38;58.81
28701;BME280;15877;52.344;16.790;2023-03-23T10:29:47;99751.05;;;16.33;59.69
28701;BME280;15877;52.344;16.790;2023-03-23T10:32:34;99746.09;;;16.33;60.70
28701;BME280;15877;52.344;16.790;2023-03-23T10:35:12;99760.90;;;16.33;61.21
28701;BME280;15877;52.344;16.790;2023-03-23T10:37:48;99768.30;;;16.17;62.52
28701;BME280;15877;52.344;16.790;2023-03-23T10:40:25;99775.70;;;16.15;62.94
28701;BME280;15877;52.344;16.790;2023-03-23T10:42:58;99773.05;;;16.15;63.04
28701;BME280;15877;52.344;16.790;2023-03-23T10:45:31;99776.75;;;16.27;62.72
28701;BME280;15877;52.344;16.790;2023-03-23T10:48:09;99775.66;;;16.18;63.33
28701;BME280;15877;52.344;16.790;2023-03-23T10:50:43;99777.97;;;16.05;64.30
28701;BME280;15877;52.344;16.790;2023-03-23T10:53:18;99776.64;;;16.08;63.62
28701;BME280;15877;52.344;16.790;2023-03-23T10:55:50;99774.48;;;16.08;63.37
28701;BME280;15877;52.344;16.790;2023-03-23T10:58:29;99774.65;;;16.23;63.06
28701;BME280;15877;52.344;16.790;2023-03-23T11:01:03;99781.76;;;16.09;63.45
28701;BME280;15877;52.344;16.790;2023-03-23T11:03:42;99782.90;;;16.07;63.34
28701;BME280;15877;52.344;16.790;2023-03-23T11:06:22;99778.74;;;15.91;63.56
28701;BME280;15877;52.344;16.790;2023-03-23T11:08:58;99763.19;;;15.94;63.91
28701;BME280;15877;52.344;16.790;2023-03-23T11:11:31;99764.16;;;15.92;64.30
28701;BME280;15877;52.344;16.790;2023-03-23T11:14:14;99763.17;;;16.03;63.70
28701;BME280;15877;52.344;16.790;2023-03-23T11:16:50;99760.17;;;15.92;64.49
28701;BME280;15877;52.344;16.790;2023-03-23T11:19:27;99773.30;;;15.91;63.71
28701;BME280;15877;52.344;16.790;2023-03-23T11:22:06;99763.41;;;15.97;63.11
28701;BME280;15877;52.344;16.790;2023-03-23T11:24:44;99753.01;;;15.97;63.80
28701;BME280;15877;52.344;16.790;2023-03-23T11:27:16;99766.62;;;16.03;63.23
28701;BME280;15877;52.344;16.790;2023-03-23T11:29:51;99769.27;;;16.09;63.16
28701;BME280;15877;52.344;16.790;2023-03-23T11:32:26;99765.60;;;16.08;63.21
28701;BME280;15877;52.344;16.790;2023-03-23T11:35:00;99760.97;;;15.92;62.68
28701;BME280;15877;52.344;16.790;2023-03-23T11:37:39;99746.36;;;15.96;63.23
28701;BME280;15877;52.344;16.790;2023-03-23T11:40:19;99734.84;;;15.88;65.11
28701;BME280;15877;52.344;16.790;2023-03-23T11:42:59;99736.90;;;15.98;65.56
28701;BME280;15877;52.344;16.790;2023-03-23T11:45:36;99732.85;;;16.15;65.09
28701;BME280;15877;52.344;16.790;2023-03-23T11:48:15;99728.88;;;16.13;64.84
28701;BME280;15877;52.344;16.790;2023-03-23T11:50:53;99726.55;;;16.13;64.11
28701;BME280;15877;52.344;16.790;2023-03-23T11:53:32;99729.30;;;16.10;64.20
28701;BME280;15877;52.344;16.790;2023-03-23T11:56:13;99716.95;;;16.06;64.96
28701;BME280;15877;52.344;16.790;2023-03-23T11:58:47;99730.55;;;16.20;64.49
28701;BME280;15877;52.344;16.790;2023-03-23T12:01:27;99734.71;;;16.21;64.33
28701;BME280;15877;52.344;16.790;2023-03-23T12:04:30;99729.21;;;16.18;64.55
28701;BME280;15877;52.344;16.790;2023-03-23T12:07:21;99731.98;;;16.20;65.22
28701;BME280;15877;52.344;16.790;2023-03-23T12:10:02;99736.83;;;16.24;65.29
28701;BME280;15877;52.344;16.790;2023-03-23T12:12:44;99735.10;;;16.21;64.88
28701;BME280;15877;52.344;16.790;2023-03-23T12:15:24;99735.74;;;16.34;64.93
28701;BME280;15877;52.344;16.790;2023-03-23T12:18:03;99730.00;;;16.26;64.83
28701;BME280;15877;52.344;16.790;2023-03-23T12:20:47;99731.31;;;16.17;64.17
28701;BME280;15877;52.344;16.790;2023-03-23T12:23:24;99728.13;;;16.28;64.18
28701;BME280;15877;52.344;16.790;2023-03-23T12:26:14;99727.20;;;16.26;64.99
28701;BME280;15877;52.344;16.790;2023-03-23T12:32:02;99731.14;;;16.17;64.53
28701;BME280;15877;52.344;16.790;2023-03-23T12:34:44;99727.83;;;16.13;63.55
28701;BME280;15877;52.344;16.790;2023-03-23T12:37:39;99723.60;;;16.06;64.09
28701;BME280;15877;52.344;16.790;2023-03-23T12:40:30;99720.52;;;16.09;64.81
28701;BME280;15877;52.344;16.790;2023-03-23T12:43:08;99721.41;;;16.07;65.11
28701;BME280;15877;52.344;16.790;2023-03-23T12:46:02;99724.95;;;16.20;64.11
28701;BME280;15877;52.344;16.790;2023-03-23T12:48:42;99720.54;;;16.21;64.62
28701;BME280;15877;52.344;16.790;2023-03-23T12:51:21;99718.23;;;16.12;65.14
28701;BME280;15877;52.344;16.790;2023-03-23T12:54:01;99716.00;;;16.11;64.93
28701;BME280;15877;52.344;16.790;2023-03-23T12:56:39;99714.20;;;16.20;64.74
28701;BME280;15877;52.344;16.790;2023-03-23T12:59:19;99720.20;;;16.14;64.64
28701;BME280;15877;52.344;16.790;2023-03-23T13:01:55;99722.27;;;16.17;65.21
28701;BME280;15877;52.344;16.790;2023-03-23T13:04:32;99721.21;;;16.24;64.77
28701;BME280;15877;52.344;16.790;2023-03-23T13:07:14;99718.71;;;16.12;64.49
28701;BME280;15877;52.344;16.790;2023-03-23T13:09:52;99721.92;;;16.05;64.60
28701;BME280;15877;52.344;16.790;2023-03-23T13:12:26;99725.76;;;15.99;65.03
28701;BME280;15877;52.344;16.790;2023-03-23T13:15:04;99724.00;;;16.05;65.31
28701;BME280;15877;52.344;16.790;2023-03-23T13:17:46;99731.21;;;16.25;64.76
28701;BME280;15877;52.344;16.790;2023-03-23T13:20:40;99728.75;;;16.23;64.89
28701;BME280;15877;52.344;16.790;2023-03-23T13:23:17;99725.26;;;16.34;65.19
28701;BME280;15877;52.344;16.790;2023-03-23T13:25:56;99725.33;;;16.35;64.51
28701;BME280;15877;52.344;16.790;2023-03-23T13:28:32;99721.71;;;16.49;64.41
28701;BME280;15877;52.344;16.790;2023-03-23T13:31:17;99707.86;;;16.66;64.21
28701;BME280;15877;52.344;16.790;2023-03-23T13:33:59;99700.91;;;16.53;64.82
28701;BME280;15877;52.344;16.790;2023-03-23T13:36:35;99706.85;;;16.65;64.14
28701;BME280;15877;52.344;16.790;2023-03-23T13:39:05;99705.41;;;16.58;63.75
28701;BME280;15877;52.344;16.790;2023-03-23T13:41:49;99700.06;;;16.51;64.31
28701;BME280;15877;52.344;16.790;2023-03-23T13:44:42;99699.35;;;16.50;64.13
28701;BME280;15877;52.344;16.790;2023-03-23T13:47:27;99701.13;;;16.42;64.30
28701;BME280;15877;52.344;16.790;2023-03-23T13:50:03;99697.12;;;16.55;63.93
28701;BME280;15877;52.344;16.790;2023-03-23T13:52:50;99695.55;;;16.46;64.14
28701;BME280;15877;52.344;16.790;2023-03-23T13:55:38;99703.13;;;16.35;63.91
28701;BME280;15877;52.344;16.790;2023-03-23T13:58:23;99703.39;;;16.28;64.90